createdAt,value
2022-08-26T00:02:12.532Z,100.00
2022-08-26T00:04:40.671Z,100.00
2022-08-26T00:07:08.276Z,100.00
2022-08-26T00:09:39.152Z,100.00
2022-08-26T00:12:09.552Z,100.00
2022-08-26T00:14:40.087Z,100.00
2022-08-26T00:17:08.590Z,100.00
2022-08-26T00:19:36.073Z,100.00
2022-08-26T00:22:03.904Z,100.00
2022-08-26T00:24:31.253Z,100.00
2022-08-26T00:26:58.735Z,100.00
2022-08-26T00:29:26.086Z,100.00
2022-08-26T00:31:53.473Z,100.00
2022-08-26T00:34:20.900Z,100.00
2022-08-26T00:36:49.236Z,100.00
2022-08-26T00:39:20.814Z,100.00
2022-08-26T00:41:48.663Z,100.00
2022-08-26T00:44:17.645Z,100.00
2022-08-26T00:46:59.411Z,100.00
2022-08-26T00:49:47.417Z,100.00
2022-08-26T00:52:21.693Z,100.00
2022-08-26T00:55:19.741Z,100.00
2022-08-26T00:57:51.202Z,100.00
2022-08-26T01:00:26.621Z,100.00
2022-08-26T01:02:56.067Z,100.00
2022-08-26T01:05:24.552Z,100.00
2022-08-26T01:07:52.157Z,100.00
2022-08-26T01:10:31.265Z,100.00
2022-08-26T01:13:07.116Z,100.00
2022-08-26T01:15:51.114Z,100.00
2022-08-26T01:18:19.949Z,100.00
2022-08-26T01:21:10.134Z,100.00
2022-08-26T01:23:51.694Z,100.00
2022-08-26T01:26:40.479Z,100.00
2022-08-26T01:29:14.894Z,100.00
2022-08-26T01:31:57.404Z,100.00
2022-08-26T01:34:37.481Z,100.00
2022-08-26T01:37:15.921Z,100.00
2022-08-26T01:39:49.899Z,100.00
2022-08-26T01:42:19.889Z,100.00
2022-08-26T01:44:59.299Z,100.00
2022-08-26T01:47:30.880Z,100.00
2022-08-26T01:50:06.314Z,100.00
2022-08-26T01:52:41.438Z,100.00
2022-08-26T01:55:14.991Z,100.00
2022-08-26T01:57:59.900Z,100.00
2022-08-26T02:00:27.459Z,100.00
2022-08-26T02:03:17.204Z,100.00
2022-08-26T02:06:03.852Z,100.00
2022-08-26T02:08:47.893Z,100.00
2022-08-26T02:11:16.709Z,100.00
2022-08-26T02:13:55.617Z,100.00
2022-08-26T02:16:28.614Z,100.00
2022-08-26T02:19:00.211Z,100.00
2022-08-26T02:21:29.127Z,100.00
2022-08-26T02:24:13.722Z,100.00
2022-08-26T02:26:43.186Z,100.00
2022-08-26T02:29:41.354Z,100.00
2022-08-26T02:32:11.029Z,100.00
2022-08-26T02:34:38.837Z,100.00
2022-08-26T02:37:11.223Z,100.00
2022-08-26T02:39:42.715Z,100.00
2022-08-26T02:42:10.721Z,100.00
2022-08-26T02:44:38.349Z,100.00
2022-08-26T02:47:07.532Z,100.00
2022-08-26T02:49:36.755Z,100.00
2022-08-26T02:52:07.219Z,100.00
2022-08-26T02:54:35.120Z,100.00
2022-08-26T02:57:04.011Z,100.00
2022-08-26T02:59:35.945Z,100.00
2022-08-26T03:02:03.846Z,100.00
2022-08-26T03:04:33.488Z,100.00
2022-08-26T03:07:01.072Z,100.00
2022-08-26T03:09:28.703Z,100.00
2022-08-26T03:11:56.139Z,100.00
2022-08-26T03:14:24.184Z,100.00
2022-08-26T03:16:54.001Z,100.00
2022-08-26T03:19:24.782Z,100.00
2022-08-26T03:21:57.940Z,100.00
2022-08-26T03:24:26.937Z,100.00
2022-08-26T03:26:54.211Z,100.00
2022-08-26T03:29:41.590Z,100.00
2022-08-26T03:32:09.950Z,100.00
2022-08-26T03:34:38.012Z,100.00
2022-08-26T03:37:06.340Z,100.00
2022-08-26T03:39:33.789Z,100.00
2022-08-26T03:42:01.576Z,100.00
2022-08-26T03:44:29.098Z,100.00
2022-08-26T03:46:56.600Z,100.00
2022-08-26T03:49:24.145Z,100.00
2022-08-26T03:51:51.555Z,100.00
2022-08-26T03:54:19.170Z,100.00
2022-08-26T03:56:46.729Z,100.00
2022-08-26T03:59:14.085Z,100.00
2022-08-26T04:01:41.917Z,100.00
2022-08-26T04:04:09.441Z,100.00
2022-08-26T04:06:43.360Z,100.00
2022-08-26T04:09:20.162Z,100.00
2022-08-26T04:11:50.343Z,100.00
2022-08-26T04:14:26.400Z,100.00
2022-08-26T04:16:56.383Z,100.00
2022-08-26T04:19:25.914Z,100.00
2022-08-26T04:21:54.716Z,100.00
2022-08-26T04:24:27.176Z,100.00
2022-08-26T04:26:56.612Z,100.00
2022-08-26T04:29:26.819Z,100.00
2022-08-26T04:31:58.840Z,100.00
2022-08-26T04:34:29.117Z,100.00
2022-08-26T04:36:58.432Z,100.00
2022-08-26T04:39:27.684Z,100.00
2022-08-26T04:41:56.014Z,100.00
2022-08-26T04:44:29.275Z,100.00
2022-08-26T04:46:58.518Z,100.00
2022-08-26T04:49:29.430Z,100.00
2022-08-26T04:52:05.213Z,100.00
2022-08-26T04:54:32.771Z,100.00
2022-08-26T04:57:03.472Z,100.00
2022-08-26T04:59:30.765Z,100.00
2022-08-26T05:01:59.678Z,100.00
2022-08-26T05:04:28.410Z,100.00
2022-08-26T05:07:02.805Z,100.00
2022-08-26T05:09:30.638Z,100.00
2022-08-26T05:12:00.757Z,100.00
2022-08-26T05:14:31.186Z,100.00
2022-08-26T05:16:58.549Z,100.00
2022-08-26T05:19:27.984Z,100.00
2022-08-26T05:21:55.527Z,100.00
2022-08-26T05:24:23.428Z,100.00
2022-08-26T05:26:50.744Z,100.00
2022-08-26T05:29:18.829Z,100.00
2022-08-26T05:31:55.953Z,100.00
2022-08-26T05:34:30.066Z,100.00
2022-08-26T05:36:58.309Z,100.00
2022-08-26T05:39:25.878Z,100.00
2022-08-26T05:41:53.348Z,100.00
2022-08-26T05:44:23.844Z,100.00
2022-08-26T05:46:51.867Z,100.00
2022-08-26T05:49:20.311Z,100.00
2022-08-26T05:51:50.011Z,100.00
2022-08-26T05:54:22.371Z,100.00
2022-08-26T05:56:51.933Z,100.00
2022-08-26T05:59:23.916Z,100.00
2022-08-26T06:01:54.974Z,100.00
2022-08-26T06:04:29.134Z,100.00
2022-08-26T06:06:58.393Z,100.00
2022-08-26T06:09:28.524Z,100.00
2022-08-26T06:11:58.830Z,100.00
2022-08-26T06:14:26.192Z,100.00
2022-08-26T06:16:54.391Z,100.00
2022-08-26T06:19:22.527Z,100.00
2022-08-26T06:21:54.657Z,100.00
2022-08-26T06:24:41.048Z,100.00
2022-08-26T06:27:13.450Z,100.00
2022-08-26T06:29:41.853Z,100.00
2022-08-26T06:32:09.393Z,100.00
2022-08-26T06:34:37.194Z,100.00
2022-08-26T06:37:06.384Z,100.00
2022-08-26T06:39:35.310Z,100.00
2022-08-26T06:42:08.109Z,100.00
2022-08-26T06:44:35.516Z,100.00
2022-08-26T06:47:04.907Z,100.00
2022-08-26T06:49:32.213Z,100.00
2022-08-26T06:51:59.524Z,100.00
2022-08-26T06:54:31.704Z,100.00
2022-08-26T06:57:09.924Z,100.00
2022-08-26T06:59:37.441Z,100.00
2022-08-26T07:02:08.199Z,100.00
2022-08-26T07:04:35.763Z,100.00
2022-08-26T07:07:04.519Z,100.00
2022-08-26T07:09:38.162Z,100.00
2022-08-26T07:12:12.711Z,100.00
2022-08-26T07:14:47.289Z,100.00
2022-08-26T07:17:25.017Z,100.00
2022-08-26T07:19:53.655Z,100.00
2022-08-26T07:22:23.757Z,100.00
2022-08-26T07:24:57.557Z,100.00
2022-08-26T07:27:25.292Z,100.00
2022-08-26T07:29:57.518Z,100.00
2022-08-26T07:32:37.532Z,100.00
2022-08-26T07:35:06.469Z,100.00
2022-08-26T07:37:35.490Z,100.00
2022-08-26T07:40:07.653Z,100.00
2022-08-26T07:42:36.796Z,100.00
2022-08-26T07:45:05.920Z,100.00
2022-08-26T07:47:33.754Z,100.00
2022-08-26T07:50:01.273Z,100.00
2022-08-26T07:52:30.790Z,100.00
2022-08-26T07:55:02.539Z,100.00
2022-08-26T07:57:30.828Z,100.00
2022-08-26T08:00:02.386Z,100.00
2022-08-26T08:02:40.007Z,100.00
2022-08-26T08:05:09.072Z,100.00
2022-08-26T08:07:38.594Z,100.00
2022-08-26T08:10:25.967Z,100.00
2022-08-26T08:12:56.267Z,100.00
2022-08-26T08:15:28.816Z,99.44
2022-08-26T08:18:00.994Z,99.82
2022-08-26T08:20:33.298Z,99.13
2022-08-26T08:23:04.273Z,98.05
2022-08-26T08:25:34.526Z,98.00
2022-08-26T08:28:02.067Z,97.88
2022-08-26T08:30:29.892Z,96.66
2022-08-26T08:32:57.577Z,96.21
2022-08-26T08:35:26.538Z,95.90
2022-08-26T08:37:56.539Z,96.17
2022-08-26T08:40:27.519Z,95.23
2022-08-26T08:43:29.285Z,95.12
2022-08-26T08:46:12.519Z,94.61
2022-08-26T08:48:48.174Z,94.60
2022-08-26T08:52:00.753Z,94.62
2022-08-26T08:54:29.150Z,94.63
2022-08-26T08:57:17.072Z,94.06
2022-08-26T09:00:14.072Z,94.03
2022-08-26T09:03:09.734Z,94.24
2022-08-26T09:05:48.515Z,94.21
2022-08-26T09:08:32.369Z,94.87
2022-08-26T09:11:03.419Z,94.26
2022-08-26T09:13:31.755Z,93.97
2022-08-26T09:16:13.837Z,93.38
2022-08-26T09:19:15.247Z,92.71
2022-08-26T09:21:54.437Z,93.08
2022-08-26T09:24:28.591Z,93.89
2022-08-26T09:26:59.158Z,94.02
2022-08-26T09:29:32.323Z,94.27
2022-08-26T09:32:24.404Z,94.13
2022-08-26T09:35:00.587Z,93.54
2022-08-26T09:40:34.690Z,94.33
2022-08-26T09:43:22.144Z,94.76
2022-08-26T09:46:09.560Z,95.29
2022-08-26T09:48:41.557Z,96.18
2022-08-26T09:51:38.841Z,96.21
2022-08-26T09:54:08.160Z,97.75
2022-08-26T09:56:39.311Z,99.04
2022-08-26T09:59:12.094Z,99.61
2022-08-26T10:01:43.814Z,100.00
2022-08-26T10:04:21.441Z,100.00
2022-08-26T10:07:08.181Z,100.00
2022-08-26T10:09:43.406Z,100.00
2022-08-26T10:12:21.784Z,100.00
2022-08-26T10:15:00.061Z,100.00
2022-08-26T10:18:12.073Z,100.00
2022-08-26T10:21:02.653Z,100.00
2022-08-26T10:23:45.135Z,100.00
2022-08-26T10:26:46.059Z,100.00
2022-08-26T10:29:43.451Z,100.00
2022-08-26T10:32:45.814Z,100.00
2022-08-26T10:35:18.050Z,100.00
2022-08-26T10:38:10.807Z,100.00
2022-08-26T10:41:11.012Z,100.00
2022-08-26T10:43:56.346Z,99.87
2022-08-26T10:46:37.287Z,99.75
2022-08-26T10:49:17.755Z,99.04
2022-08-26T10:52:17.897Z,99.23
2022-08-26T10:55:34.906Z,98.96
2022-08-26T10:58:31.946Z,98.93
2022-08-26T11:01:33.744Z,97.97
2022-08-26T11:04:38.713Z,98.11
2022-08-26T11:07:56.377Z,98.18
2022-08-26T11:10:24.367Z,96.88
2022-08-26T11:13:05.097Z,95.03
2022-08-26T11:15:32.431Z,95.57
2022-08-26T11:18:11.698Z,95.52
2022-08-26T11:20:46.042Z,94.74
2022-08-26T11:23:23.423Z,94.21
2022-08-26T11:25:59.772Z,93.43
2022-08-26T11:28:44.130Z,94.06
2022-08-26T11:31:38.730Z,93.16
2022-08-26T11:34:12.698Z,92.77
2022-08-26T11:36:45.909Z,92.39
2022-08-26T11:39:56.982Z,93.06
2022-08-26T11:43:02.987Z,91.34
2022-08-26T11:45:43.131Z,91.30
2022-08-26T11:48:35.460Z,91.66
2022-08-26T11:51:20.341Z,91.71
2022-08-26T11:53:48.374Z,92.20
2022-08-26T11:56:38.175Z,93.05
2022-08-26T12:02:18.129Z,94.37
2022-08-26T12:04:51.853Z,92.62
2022-08-26T12:07:29.066Z,93.30
2022-08-26T12:10:02.226Z,93.43
2022-08-26T12:12:40.677Z,94.09
2022-08-26T12:15:22.213Z,93.57
2022-08-26T12:17:54.559Z,92.97
2022-08-26T12:20:48.394Z,91.35
2022-08-26T12:23:42.079Z,91.63
2022-08-26T12:26:31.925Z,89.51
2022-08-26T12:29:19.936Z,90.19
2022-08-26T12:31:48.257Z,90.10
2022-08-26T12:34:18.446Z,90.02
2022-08-26T12:36:55.837Z,90.17
2022-08-26T12:39:36.257Z,90.46
2022-08-26T12:42:12.478Z,90.84
2022-08-26T12:45:00.749Z,90.84
2022-08-26T12:47:44.307Z,91.50
2022-08-26T12:50:26.604Z,91.47
2022-08-26T12:53:04.165Z,91.26
2022-08-26T12:55:47.605Z,91.25
2022-08-26T12:58:35.939Z,91.38
2022-08-26T13:01:09.287Z,91.18
2022-08-26T13:03:43.838Z,91.55
2022-08-26T13:06:23.182Z,91.39
2022-08-26T13:09:00.678Z,91.92
2022-08-26T13:11:38.982Z,91.55
2022-08-26T13:14:24.244Z,90.58
2022-08-26T13:16:53.169Z,90.82
2022-08-26T13:19:29.135Z,90.79
2022-08-26T13:22:01.041Z,90.58
2022-08-26T13:24:41.872Z,89.73
2022-08-26T13:27:14.127Z,90.42
2022-08-26T13:29:42.067Z,89.85
2022-08-26T13:32:09.988Z,89.77
2022-08-26T13:34:39.034Z,89.77
2022-08-26T13:37:07.306Z,89.60
2022-08-26T13:39:35.330Z,89.34
2022-08-26T13:42:02.632Z,89.76
2022-08-26T13:44:30.051Z,89.63
2022-08-26T13:46:57.772Z,88.07
2022-08-26T13:49:25.610Z,85.83
2022-08-26T13:51:53.075Z,85.82
2022-08-26T13:54:20.552Z,85.92
2022-08-26T13:56:47.917Z,86.57
2022-08-26T13:59:15.415Z,85.76
2022-08-26T14:01:42.779Z,84.71
2022-08-26T14:04:10.275Z,84.11
2022-08-26T14:06:37.636Z,83.93
2022-08-26T14:09:05.488Z,84.04
2022-08-26T14:11:50.691Z,82.87
2022-08-26T14:14:20.673Z,83.08
2022-08-26T14:16:58.849Z,83.26
2022-08-26T14:19:30.243Z,81.80
2022-08-26T14:22:00.813Z,81.81
2022-08-26T14:24:29.108Z,82.45
2022-08-26T14:26:56.559Z,82.98
2022-08-26T14:29:25.078Z,83.47
2022-08-26T14:31:52.830Z,83.14
2022-08-26T14:34:20.264Z,82.29
2022-08-26T14:36:47.626Z,82.46
2022-08-26T14:39:15.029Z,83.05
2022-08-26T14:41:55.206Z,83.66
2022-08-26T14:44:31.264Z,85.19
2022-08-26T14:47:04.235Z,85.61
2022-08-26T14:49:31.833Z,87.69
2022-08-26T14:52:00.025Z,88.62
2022-08-26T14:54:29.299Z,89.89
2022-08-26T14:57:07.117Z,90.50
2022-08-26T14:59:50.084Z,92.60
2022-08-26T15:02:18.170Z,95.51
2022-08-26T15:05:01.173Z,96.83
2022-08-26T15:07:32.603Z,98.56
2022-08-26T15:10:00.290Z,100.00
2022-08-26T15:12:27.863Z,100.00
2022-08-26T15:14:55.334Z,100.00
2022-08-26T15:17:23.487Z,100.00
2022-08-26T15:19:52.173Z,94.07
2022-08-26T15:22:20.052Z,93.79
2022-08-26T15:24:47.483Z,86.67
2022-08-26T15:27:19.794Z,84.79
2022-08-26T15:29:47.237Z,79.01
2022-08-26T15:32:14.671Z,79.31
2022-08-26T15:34:42.043Z,83.12
2022-08-26T15:37:09.739Z,84.25
2022-08-26T15:39:37.231Z,86.76
2022-08-26T15:42:05.353Z,87.77
2022-08-26T15:44:34.106Z,91.34
2022-08-26T15:47:01.543Z,92.00
2022-08-26T15:49:29.029Z,88.96
2022-08-26T15:51:56.441Z,88.56
2022-08-26T15:54:24.442Z,89.47
2022-08-26T15:56:53.074Z,90.91
2022-08-26T15:59:22.299Z,90.69
2022-08-26T16:04:18.706Z,88.39
2022-08-26T16:06:50.439Z,89.21
2022-08-26T16:09:21.338Z,90.19
2022-08-26T16:11:49.992Z,90.04
2022-08-26T16:14:17.501Z,90.97
2022-08-26T16:16:45.037Z,92.70
2022-08-26T16:19:12.766Z,90.28
2022-08-26T16:21:41.737Z,89.24
2022-08-26T16:24:09.542Z,89.49
2022-08-26T16:26:41.265Z,89.81
2022-08-26T16:29:13.826Z,89.89
2022-08-26T16:31:42.330Z,91.90
2022-08-26T16:34:10.545Z,91.77
2022-08-26T16:36:40.474Z,92.36
2022-08-26T16:39:09.789Z,91.97
2022-08-26T16:41:37.654Z,91.43
2022-08-26T16:44:08.267Z,90.32
2022-08-26T16:46:36.535Z,90.41
2022-08-26T16:49:04.616Z,90.52
2022-08-26T16:51:38.093Z,90.30
2022-08-26T16:54:08.877Z,89.01
2022-08-26T16:56:37.921Z,88.58
2022-08-26T16:59:11.552Z,86.31
2022-08-26T17:01:39.099Z,86.31
2022-08-26T17:04:06.770Z,87.32
2022-08-26T17:06:34.296Z,87.02
2022-08-26T17:09:01.773Z,86.29
2022-08-26T17:11:29.178Z,87.44
2022-08-26T17:13:57.429Z,86.99
2022-08-26T17:16:27.116Z,87.43
2022-08-26T17:18:57.517Z,88.20
2022-08-26T17:21:26.380Z,88.86
2022-08-26T17:23:55.194Z,88.30
2022-08-26T17:26:22.776Z,87.98
2022-08-26T17:28:51.255Z,88.87
2022-08-26T17:31:20.307Z,88.81
2022-08-26T17:33:53.298Z,89.79
2022-08-26T17:36:27.501Z,89.28
2022-08-26T17:38:58.321Z,88.55
2022-08-26T17:41:26.718Z,88.74
2022-08-26T17:43:54.638Z,88.11
2022-08-26T17:46:22.615Z,88.70
2022-08-26T17:48:50.110Z,88.80
2022-08-26T17:51:19.855Z,89.45
2022-08-26T17:53:48.587Z,90.43
2022-08-26T17:56:24.168Z,89.97
2022-08-26T17:58:56.501Z,89.30
2022-08-26T18:01:27.576Z,89.75
2022-08-26T18:04:00.247Z,90.89
2022-08-26T18:06:30.690Z,91.28
2022-08-26T18:09:00.802Z,90.63
2022-08-26T18:11:32.109Z,90.51
2022-08-26T18:14:00.589Z,90.73
2022-08-26T18:16:32.115Z,90.10
2022-08-26T18:19:00.394Z,89.74
2022-08-26T18:21:28.345Z,89.75
2022-08-26T18:23:56.516Z,90.05
2022-08-26T18:26:31.903Z,89.99
2022-08-26T18:29:00.610Z,89.67
2022-08-26T18:31:29.164Z,90.47
2022-08-26T18:33:58.337Z,90.75
2022-08-26T18:36:33.318Z,90.87
2022-08-26T18:39:02.527Z,90.94
2022-08-26T18:41:33.719Z,90.76
2022-08-26T18:44:01.367Z,91.01
2022-08-26T18:46:29.010Z,90.87
2022-08-26T18:48:57.816Z,90.88
2022-08-26T18:51:33.006Z,90.64
2022-08-26T18:54:04.725Z,90.93
2022-08-26T18:56:35.173Z,90.54
2022-08-26T18:59:04.852Z,91.02
2022-08-26T19:01:34.349Z,90.74
2022-08-26T19:04:06.118Z,90.76
2022-08-26T19:06:36.063Z,90.69
2022-08-26T19:09:08.911Z,90.71
2022-08-26T19:11:42.998Z,90.30
2022-08-26T19:14:15.566Z,90.49
2022-08-26T19:16:48.559Z,90.46
2022-08-26T19:19:17.199Z,90.46
2022-08-26T19:21:45.493Z,89.63
2022-08-26T19:24:17.591Z,89.06
2022-08-26T19:26:51.349Z,88.60
2022-08-26T19:29:33.490Z,89.56
2022-08-26T19:32:03.041Z,89.10
2022-08-26T19:34:31.109Z,89.37
2022-08-26T19:36:59.125Z,88.97
2022-08-26T19:39:27.745Z,89.05
2022-08-26T19:41:55.137Z,89.01
2022-08-26T19:44:42.986Z,89.43
2022-08-26T19:47:12.109Z,89.03
2022-08-26T19:49:39.667Z,89.35
2022-08-26T19:52:09.251Z,89.75
2022-08-26T19:54:37.551Z,89.41
2022-08-26T19:57:06.117Z,88.98
2022-08-26T19:59:33.725Z,88.69
2022-08-26T20:02:01.992Z,88.63
2022-08-26T20:04:33.112Z,89.35
2022-08-26T20:07:03.196Z,89.35
2022-08-26T20:09:34.024Z,88.83
2022-08-26T20:12:05.115Z,87.85
2022-08-26T20:14:33.639Z,87.70
2022-08-26T20:17:02.684Z,86.94
2022-08-26T20:19:48.777Z,86.46
2022-08-26T20:22:17.450Z,85.92
2022-08-26T20:24:46.215Z,85.10
2022-08-26T20:27:15.470Z,85.69
2022-08-26T20:29:43.088Z,85.87
2022-08-26T20:32:11.999Z,85.43
2022-08-26T20:34:40.049Z,86.33
2022-08-26T20:37:08.475Z,86.15
2022-08-26T20:39:36.335Z,86.59
2022-08-26T20:42:06.667Z,86.74
2022-08-26T20:44:54.411Z,87.14
2022-08-26T20:47:23.166Z,86.91
2022-08-26T20:49:52.576Z,87.14
2022-08-26T20:52:20.827Z,87.12
2022-08-26T20:54:48.211Z,87.03
2022-08-26T20:57:15.776Z,87.04
2022-08-26T20:59:43.538Z,87.17
2022-08-26T21:02:11.019Z,87.14
2022-08-26T21:04:38.530Z,87.32
2022-08-26T21:07:06.068Z,87.02
2022-08-26T21:09:33.519Z,86.88
2022-08-26T21:12:00.855Z,87.51
2022-08-26T21:14:28.869Z,87.40
2022-08-26T21:16:57.258Z,87.55
2022-08-26T21:19:24.630Z,87.28
2022-08-26T21:21:52.073Z,86.88
2022-08-26T21:24:19.640Z,87.62
2022-08-26T21:26:48.027Z,87.98
2022-08-26T21:29:15.540Z,88.18
2022-08-26T21:31:46.628Z,88.97
2022-08-26T21:34:18.441Z,88.72
2022-08-26T21:36:49.831Z,88.95
2022-08-26T21:39:19.642Z,89.13
2022-08-26T21:41:47.560Z,89.22
2022-08-26T21:44:17.747Z,88.97
2022-08-26T21:46:46.951Z,88.62
2022-08-26T21:49:17.013Z,89.21
2022-08-26T21:51:48.395Z,89.50
2022-08-26T21:54:17.405Z,89.29
2022-08-26T21:56:47.394Z,89.18
2022-08-26T21:59:19.305Z,88.74
2022-08-26T22:01:47.571Z,88.89
2022-08-26T22:04:16.153Z,88.93
2022-08-26T22:06:49.558Z,87.06
2022-08-26T22:09:25.290Z,86.14
2022-08-26T22:11:56.539Z,84.58
2022-08-26T22:14:30.361Z,83.91
2022-08-26T22:16:59.768Z,83.78
2022-08-26T22:19:27.499Z,82.82
2022-08-26T22:21:56.772Z,82.50
2022-08-26T22:24:27.427Z,81.70
2022-08-26T22:26:56.114Z,81.85
2022-08-26T22:29:25.164Z,81.63
2022-08-26T22:31:52.937Z,82.31
2022-08-26T22:34:21.223Z,80.10
2022-08-26T22:36:50.830Z,79.85
2022-08-26T22:39:23.761Z,80.36
2022-08-26T22:41:53.841Z,79.45
2022-08-26T22:44:22.429Z,79.18
2022-08-26T22:46:54.165Z,78.02
2022-08-26T22:49:23.296Z,77.93
2022-08-26T22:51:51.927Z,77.70
2022-08-26T22:54:19.323Z,77.61
2022-08-26T22:56:46.719Z,78.60
2022-08-26T22:59:15.941Z,78.60
2022-08-26T23:01:44.683Z,78.55
2022-08-26T23:04:12.325Z,78.40
2022-08-26T23:06:43.432Z,78.56
2022-08-26T23:09:18.252Z,79.54
2022-08-26T23:11:48.635Z,79.43
2022-08-26T23:14:18.854Z,80.48
2022-08-26T23:16:47.893Z,80.79
2022-08-26T23:19:19.722Z,81.37
2022-08-26T23:21:48.421Z,81.30
2022-08-26T23:24:17.358Z,82.65
2022-08-26T23:26:46.408Z,82.30
2022-08-26T23:29:15.978Z,82.91
2022-08-26T23:31:44.211Z,83.27
2022-08-26T23:34:30.289Z,84.11
2022-08-26T23:36:59.459Z,84.01
2022-08-26T23:39:29.422Z,84.72
2022-08-26T23:41:57.994Z,84.69
2022-08-26T23:44:26.528Z,85.71
2022-08-26T23:46:55.065Z,85.21
2022-08-26T23:49:23.036Z,86.15
2022-08-26T23:52:08.764Z,86.66
2022-08-26T23:54:36.581Z,87.50
2022-08-26T23:57:04.330Z,87.21
2022-08-26T23:59:32.208Z,88.23
